createdAt,value
2022-11-23T00:02:38.218Z,1.41
2022-11-23T00:07:39.438Z,1.44
2022-11-23T00:12:48.990Z,1.38
2022-11-23T00:17:50.095Z,1.35
2022-11-23T00:22:51.230Z,1.33
2022-11-23T00:27:52.346Z,1.27
2022-11-23T00:32:54.214Z,1.19
2022-11-23T00:37:55.304Z,1.06
2022-11-23T00:42:56.644Z,0.95
2022-11-23T00:48:04.075Z,0.84
2022-11-23T00:53:05.157Z,0.73
2022-11-23T00:58:06.577Z,0.62
2022-11-23T01:03:08.044Z,0.56
2022-11-23T01:08:09.408Z,0.50
2022-11-23T01:13:10.482Z,0.45
2022-11-23T01:18:11.724Z,0.44
2022-11-23T01:23:12.852Z,0.46
2022-11-23T01:28:16.078Z,0.46
2022-11-23T01:33:17.190Z,0.47
2022-11-23T01:38:18.644Z,0.47
2022-11-23T01:43:19.906Z,0.49
2022-11-23T01:48:44.665Z,0.51
2022-11-23T01:53:48.428Z,0.58
2022-11-23T01:58:52.819Z,0.64
2022-11-23T02:03:55.909Z,0.67
2022-11-23T02:08:57.242Z,0.73
2022-11-23T02:13:59.703Z,0.81
2022-11-23T02:19:00.862Z,0.86
2022-11-23T02:24:17.325Z,0.90
2022-11-23T02:29:23.283Z,0.93
2022-11-23T02:34:26.236Z,0.95
2022-11-23T02:39:33.111Z,0.94
2022-11-23T02:44:37.412Z,0.98
2022-11-23T02:49:41.999Z,0.97
2022-11-23T02:54:43.168Z,0.93
2022-11-23T02:59:44.243Z,0.92
2022-11-23T03:04:45.878Z,0.86
2022-11-23T03:09:46.984Z,0.80
2022-11-23T03:14:48.234Z,0.83
2022-11-23T03:19:50.807Z,0.80
2022-11-23T03:24:52.325Z,0.77
2022-11-23T03:29:54.022Z,0.79
2022-11-23T03:34:55.559Z,0.83
2022-11-23T03:39:57.036Z,0.87
2022-11-23T03:44:58.198Z,0.89
2022-11-23T03:49:59.672Z,0.92
2022-11-23T03:55:00.952Z,0.94
2022-11-23T04:00:03.216Z,0.89
2022-11-23T04:05:14.508Z,0.77
2022-11-23T04:10:38.614Z,0.69
2022-11-23T04:15:48.015Z,0.64
2022-11-23T04:20:49.323Z,0.64
2022-11-23T04:25:50.885Z,0.62
2022-11-23T04:30:52.669Z,0.60
2022-11-23T04:35:54.030Z,0.65
2022-11-23T04:40:55.189Z,0.67
2022-11-23T04:45:56.456Z,0.69
2022-11-23T04:51:02.599Z,0.68
2022-11-23T04:56:08.765Z,0.68
2022-11-23T05:01:12.460Z,0.72
2022-11-23T05:06:31.256Z,0.77
2022-11-23T05:11:33.594Z,0.81
2022-11-23T05:16:35.573Z,0.84
2022-11-23T05:21:37.451Z,0.84
2022-11-23T05:26:39.533Z,0.87
2022-11-23T05:31:40.901Z,0.89
2022-11-23T05:36:42.561Z,0.92
2022-11-23T05:41:44.362Z,0.91
2022-11-23T05:46:58.098Z,0.90
2022-11-23T05:52:00.904Z,0.91
2022-11-23T05:57:02.897Z,0.89
2022-11-23T06:02:18.275Z,0.85
2022-11-23T06:07:22.389Z,0.83
2022-11-23T06:12:35.346Z,0.79
2022-11-23T06:17:38.139Z,0.84
2022-11-23T06:22:43.192Z,0.89
2022-11-23T06:27:56.607Z,0.90
2022-11-23T06:33:03.941Z,0.92
2022-11-23T06:38:06.640Z,1.07
2022-11-23T06:43:08.514Z,1.20
2022-11-23T06:48:13.984Z,1.30
2022-11-23T06:53:18.264Z,1.37
2022-11-23T06:58:26.950Z,1.35
2022-11-23T07:03:28.464Z,1.40
2022-11-23T07:08:43.040Z,1.41
2022-11-23T07:14:04.428Z,1.30
2022-11-23T07:19:06.000Z,1.21
2022-11-23T07:24:07.369Z,1.23
2022-11-23T07:29:09.759Z,1.32
2022-11-23T07:34:11.294Z,1.40
2022-11-23T07:39:12.716Z,1.50
2022-11-23T07:44:14.362Z,1.58
2022-11-23T07:49:15.418Z,1.60
2022-11-23T07:54:20.757Z,1.60
2022-11-23T07:59:24.754Z,1.65
2022-11-23T08:04:26.578Z,1.73
2022-11-23T08:09:27.743Z,1.86
2022-11-23T08:14:28.926Z,2.11
2022-11-23T08:19:30.076Z,2.29
2022-11-23T08:24:31.519Z,2.39
2022-11-23T08:29:33.104Z,2.38
2022-11-23T08:34:34.489Z,2.40
2022-11-23T08:39:36.060Z,2.54
2022-11-23T08:44:37.402Z,2.76
2022-11-23T08:49:38.665Z,2.87
2022-11-23T08:54:39.824Z,2.96
2022-11-23T08:59:40.928Z,3.05
2022-11-23T09:04:42.760Z,2.98
2022-11-23T09:09:43.861Z,3.04
2022-11-23T09:14:45.080Z,3.18
2022-11-23T09:19:46.243Z,3.18
2022-11-23T09:24:47.440Z,3.10
2022-11-23T09:29:49.487Z,3.08
2022-11-23T09:34:50.607Z,3.15
2022-11-23T09:39:51.679Z,3.19
2022-11-23T09:45:13.683Z,3.15
2022-11-23T09:50:42.384Z,3.14
2022-11-23T09:55:46.628Z,3.32
2022-11-23T10:00:53.335Z,3.41
2022-11-23T10:06:19.259Z,3.38
2022-11-23T10:11:49.693Z,3.65
2022-11-23T10:17:21.856Z,3.80
2022-11-23T10:22:56.908Z,3.82
2022-11-23T10:28:02.579Z,3.80
2022-11-23T10:33:26.165Z,3.78
2022-11-23T10:38:27.835Z,3.82
2022-11-23T10:43:44.663Z,3.95
2022-11-23T10:48:46.789Z,4.15
2022-11-23T10:53:55.327Z,4.25
2022-11-23T10:58:57.569Z,4.33
2022-11-23T11:04:05.821Z,4.38
2022-11-23T11:09:19.740Z,4.62
2022-11-23T11:14:22.909Z,4.84
2022-11-23T11:19:35.564Z,5.02
2022-11-23T11:24:42.856Z,5.17
2022-11-23T11:29:43.897Z,5.52
2022-11-23T11:34:51.425Z,5.68
2022-11-23T11:40:05.308Z,5.75
2022-11-23T11:45:23.939Z,5.75
2022-11-23T11:50:33.812Z,5.84
2022-11-23T11:55:55.305Z,5.88
2022-11-23T12:01:08.225Z,5.91
2022-11-23T12:06:28.153Z,5.87
2022-11-23T12:11:29.471Z,5.82
2022-11-23T12:16:30.447Z,5.78
2022-11-23T12:22:20.467Z,5.76
2022-11-23T12:27:28.380Z,5.71
2022-11-23T12:33:00.799Z,5.71
2022-11-23T12:38:29.141Z,5.60
2022-11-23T12:43:51.934Z,5.54
2022-11-23T12:49:05.895Z,5.53
2022-11-23T12:54:20.468Z,5.42
2022-11-23T12:59:25.012Z,5.26
2022-11-23T13:04:49.430Z,5.10
2022-11-23T13:10:25.299Z,4.91
2022-11-23T13:15:35.579Z,4.77
2022-11-23T13:20:55.876Z,4.70
2022-11-23T13:26:21.685Z,4.60
2022-11-23T13:31:27.002Z,4.54
2022-11-23T13:37:10.610Z,4.42
2022-11-23T13:42:00.862Z,4.36
2022-11-23T13:47:03.736Z,4.26
2022-11-23T13:52:19.764Z,4.14
2022-11-23T13:57:21.318Z,4.04
2022-11-23T14:02:26.541Z,3.99
2022-11-23T14:07:42.754Z,3.93
2022-11-23T14:12:49.577Z,3.86
2022-11-23T14:18:09.570Z,3.81
2022-11-23T14:23:38.788Z,3.80
2022-11-23T14:29:05.276Z,3.74
2022-11-23T14:34:32.273Z,3.72
2022-11-23T14:39:55.595Z,3.67
2022-11-23T14:45:04.120Z,3.60
2022-11-23T14:50:05.897Z,3.50
2022-11-23T14:55:17.044Z,3.42
2022-11-23T15:00:30.344Z,3.36
2022-11-23T15:05:39.229Z,3.28
2022-11-23T15:10:57.034Z,3.20
2022-11-23T15:15:58.808Z,3.17
2022-11-23T15:21:13.841Z,3.18
2022-11-23T15:26:46.195Z,3.17
2022-11-23T15:31:55.268Z,3.15
2022-11-23T15:37:05.094Z,3.15
2022-11-23T15:42:06.648Z,3.23
2022-11-23T15:47:15.812Z,3.27
2022-11-23T15:52:19.120Z,3.24
2022-11-23T15:57:24.056Z,3.20
2022-11-23T16:02:28.636Z,3.15
2022-11-23T16:07:30.244Z,3.07
2022-11-23T16:12:34.925Z,3.00
2022-11-23T16:17:36.043Z,2.93
2022-11-23T16:22:41.160Z,2.82
2022-11-23T16:27:42.308Z,2.69
2022-11-23T16:32:43.460Z,2.61
2022-11-23T16:37:45.339Z,2.58
2022-11-23T16:42:51.188Z,2.57
2022-11-23T16:48:01.337Z,2.61
2022-11-23T16:53:16.144Z,2.63
2022-11-23T16:58:18.136Z,2.59
2022-11-23T17:03:20.530Z,2.61
2022-11-23T17:08:23.889Z,2.60
2022-11-23T17:13:28.336Z,2.62
2022-11-23T17:18:29.436Z,2.64
2022-11-23T17:23:30.747Z,2.65
2022-11-23T17:28:33.536Z,2.65
2022-11-23T17:33:34.663Z,2.64
2022-11-23T17:38:37.984Z,2.65
2022-11-23T17:43:39.105Z,2.66
2022-11-23T17:48:40.396Z,2.65
2022-11-23T17:53:41.563Z,2.68
2022-11-23T17:58:43.124Z,2.68
2022-11-23T18:03:45.524Z,2.68
2022-11-23T18:08:48.106Z,2.65
2022-11-23T18:13:50.091Z,2.69
2022-11-23T18:18:58.313Z,2.68
2022-11-23T18:24:04.356Z,2.69
2022-11-23T18:29:06.102Z,2.63
2022-11-23T18:34:07.427Z,2.60
2022-11-23T18:39:08.542Z,2.64
2022-11-23T18:44:09.642Z,2.65
2022-11-23T18:49:11.523Z,2.62
2022-11-23T18:54:12.651Z,2.56
2022-11-23T18:59:35.105Z,2.46
2022-11-23T19:04:35.236Z,2.40
2022-11-23T19:09:36.954Z,2.40
2022-11-23T19:14:38.113Z,2.37
2022-11-23T19:19:39.279Z,2.35
2022-11-23T19:24:40.548Z,2.36
2022-11-23T19:29:41.738Z,2.36
2022-11-23T19:34:42.958Z,2.34
2022-11-23T19:39:44.122Z,2.35
2022-11-23T19:44:45.281Z,2.36
2022-11-23T19:49:46.436Z,2.36
2022-11-23T19:54:47.599Z,2.36
2022-11-23T19:59:48.706Z,2.36
2022-11-23T20:04:51.324Z,2.39
2022-11-23T20:09:52.925Z,2.36
2022-11-23T20:14:53.981Z,2.34
2022-11-23T20:19:55.146Z,2.32
2022-11-23T20:25:03.576Z,2.34
2022-11-23T20:30:05.077Z,2.37
2022-11-23T20:35:06.714Z,2.39
2022-11-23T20:40:08.496Z,2.39
2022-11-23T20:45:09.879Z,2.37
2022-11-23T20:50:11.036Z,2.39
2022-11-23T20:55:12.279Z,2.38
2022-11-23T21:00:16.305Z,2.38
2022-11-23T21:05:18.389Z,2.38
2022-11-23T21:10:38.082Z,2.42
2022-11-23T21:15:39.651Z,2.42
2022-11-23T21:20:42.658Z,2.43
2022-11-23T21:25:44.169Z,2.44
2022-11-23T21:30:45.590Z,2.42
2022-11-23T21:35:46.752Z,2.38
2022-11-23T21:40:48.768Z,2.39
2022-11-23T21:46:00.486Z,2.40
2022-11-23T21:51:04.363Z,2.44
2022-11-23T21:56:10.979Z,2.45
2022-11-23T22:01:19.743Z,2.49
2022-11-23T22:06:21.675Z,2.46
2022-11-23T22:11:25.983Z,2.46
2022-11-23T22:16:30.932Z,2.49
2022-11-23T22:21:35.086Z,2.50
2022-11-23T22:26:36.139Z,2.51
2022-11-23T22:31:39.399Z,2.54
2022-11-23T22:36:41.450Z,2.51
2022-11-23T22:41:42.596Z,2.53
2022-11-23T22:46:44.368Z,2.53
2022-11-23T22:51:45.533Z,2.51
2022-11-23T22:56:46.722Z,2.46
2022-11-23T23:01:47.848Z,2.48
2022-11-23T23:06:50.181Z,2.54
2022-11-23T23:11:51.214Z,2.57
2022-11-23T23:16:52.448Z,2.60
2022-11-23T23:21:53.717Z,2.59
2022-11-23T23:26:55.187Z,2.59
2022-11-23T23:31:56.318Z,2.59
2022-11-23T23:36:57.537Z,2.67
2022-11-23T23:41:58.674Z,2.69
2022-11-23T23:46:59.839Z,2.73
2022-11-23T23:52:01.101Z,2.77
2022-11-23T23:57:02.250Z,2.77
